Impacts METAR Board
IDs:

KPHL - Philadelphia Intl, PA, US

Updated at: 0000 UTC 27 Apr 2018
Potential Impact None Slight Moderate High
Time 26/12Z 26/13Z 26/14Z 26/15Z 26/16Z 26/17Z 26/18Z 26/19Z 26/20Z 26/21Z 26/22Z 26/23Z 27/00Z
Temp52 53 56 57 59 62 64 65 66 66 66 66 65
Dewpt38 38 38 39 39 41 42 40 41 41 41 40 40
Altim29.78 29.79 29.81 29.82 29.81 29.81 29.82 29.82 29.81 29.82 29.83 29.84 29.85
VIS10 10 10 10 10 10 10 10 10 9 10 10 10
CIG-- -- -- -- -- -- -- -- -- -- -- -- --
CoverSCTSCTSCTSCTSCTSCTSCTSCTFEWSCTSCTSCTSCT
FltCatVFRVFRVFRVFRVFRVFRVFRVFRVFRVFRVFRVFRVFR
WX--------------------------
WDir3103003002803002702603202800260260290
WSpd13 15 10 8 9 14 11 14 12 6 12 13 8
WGst-- -- 18 -- -- 19 -- 19 -- 16 -- -- --
Raw hourly METARs
KPHL 261154Z 31013KT 10SM FEW055 SCT280 11/03 A2978 RMK AO2 SLP084 T01110033 10161 20106 51026 $
KPHL 261254Z 30015KT 10SM FEW030 SCT280 12/03 A2979 RMK AO2 SLP088 T01170033 $
KPHL 261354Z 30010G18KT 10SM FEW035 SCT280 13/03 A2981 RMK AO2 SLP094 T01330033 $
KPHL 261454Z 28008KT 10SM FEW040 SCT280 14/04 A2982 RMK AO2 SLP096 T01390039 51013 $
KPHL 261554Z 30009KT 10SM FEW040 SCT280 15/04 A2981 RMK AO2 SLP095 T01500039 $
KPHL 261654Z 27014G19KT 10SM FEW045 SCT220 SCT280 17/05 A2981 RMK AO2 SLP095 T01670050 $
KPHL 261754Z 26011KT 10SM FEW045 SCT230 SCT280 18/06 A2982 RMK AO2 SLP097 T01780056 10178 20111 53001 $
KPHL 261854Z 32014G19KT 10SM FEW045 FEW230 SCT280 18/04 A2982 RMK AO2 WSHFT 1822 SLP097 T01830044 $
KPHL 261954Z 28012KT 10SM FEW045 FEW260 19/05 A2981 RMK AO2 SLP095 T01890050
KPHL 262054Z VRB06G16KT 9SM SCT260 19/05 A2982 RMK AO2 SLP096 T01890050 55001
KPHL 262154Z 26012KT 10SM SCT260 19/05 A2983 RMK AO2 SLP100 T01890050
KPHL 262254Z 26013KT 10SM SCT250 19/04 A2984 RMK AO2 SLP105 T01890044
KPHL 262354Z 29008KT 10SM SCT250 18/04 A2985 RMK AO2 SLP108 T01830044 10194 20172 51012



Page loaded:  00:35 UTC  |   05:35 PM Pacific  |   06:35 PM Mountain  |   07:35 PM Central  |   08:35 PM Eastern

 

ADVISORIES

FORECASTS

FORECASTS

OBSERVATIONS

USER TOOLS

ABOUT US